sensor_id;sensor_type;location;lat;lon;timestamp;pressure;altitude;pressure_sealevel;temperature;humidity
77799;BME280;66989;50.426;15.352;2024-01-10T00:01:31;99645.50;;;-8.57;78.03
77799;BME280;66989;50.426;15.352;2024-01-10T00:03:57;99637.00;;;-8.55;76.67
77799;BME280;66989;50.426;15.352;2024-01-10T00:06:23;99643.06;;;-8.51;75.81
77799;BME280;66989;50.426;15.352;2024-01-10T00:08:49;99633.69;;;-8.52;76.05
77799;BME280;66989;50.426;15.352;2024-01-10T00:11:14;99637.97;;;-8.50;76.10
77799;BME280;66989;50.426;15.352;2024-01-10T00:13:39;99635.38;;;-8.53;76.61
77799;BME280;66989;50.426;15.352;2024-01-10T00:16:05;99634.53;;;-8.52;76.41
77799;BME280;66989;50.426;15.352;2024-01-10T00:18:31;99633.66;;;-8.54;76.16
77799;BME280;66989;50.426;15.352;2024-01-10T00:20:56;99631.00;;;-8.57;77.76
77799;BME280;66989;50.426;15.352;2024-01-10T00:23:22;99634.28;;;-8.62;77.95
77799;BME280;66989;50.426;15.352;2024-01-10T00:25:48;99629.91;;;-8.68;79.94
77799;BME280;66989;50.426;15.352;2024-01-10T00:28:14;99632.34;;;-8.72;79.78
77799;BME280;66989;50.426;15.352;2024-01-10T00:30:41;99628.03;;;-8.75;79.01
77799;BME280;66989;50.426;15.352;2024-01-10T00:33:07;99621.16;;;-8.78;79.50
77799;BME280;66989;50.426;15.352;2024-01-10T00:35:32;99630.56;;;-8.77;78.42
77799;BME280;66989;50.426;15.352;2024-01-10T00:37:58;99618.53;;;-8.81;78.14
77799;BME280;66989;50.426;15.352;2024-01-10T00:40:24;99631.28;;;-8.82;78.44
77799;BME280;66989;50.426;15.352;2024-01-10T00:42:50;99626.97;;;-8.85;78.15
77799;BME280;66989;50.426;15.352;2024-01-10T00:45:16;99625.16;;;-8.89;79.11
77799;BME280;66989;50.426;15.352;2024-01-10T00:47:41;99622.53;;;-8.92;78.44
77799;BME280;66989;50.426;15.352;2024-01-10T00:50:07;99625.88;;;-8.94;80.25
77799;BME280;66989;50.426;15.352;2024-01-10T00:52:33;99629.19;;;-8.98;80.01
77799;BME280;66989;50.426;15.352;2024-01-10T00:54:58;99631.66;;;-9.02;80.50
77799;BME280;66989;50.426;15.352;2024-01-10T00:57:24;99631.53;;;-9.06;81.60
77799;BME280;66989;50.426;15.352;2024-01-10T00:59:49;99630.75;;;-9.05;80.84
77799;BME280;66989;50.426;15.352;2024-01-10T01:02:14;99634.88;;;-9.10;80.42
77799;BME280;66989;50.426;15.352;2024-01-10T01:04:40;99639.13;;;-9.11;80.73
77799;BME280;66989;50.426;15.352;2024-01-10T01:07:05;99628.78;;;-9.15;80.13
77799;BME280;66989;50.426;15.352;2024-01-10T01:09:30;99633.03;;;-9.16;80.72
77799;BME280;66989;50.426;15.352;2024-01-10T01:11:56;99631.25;;;-9.18;80.52
77799;BME280;66989;50.426;15.352;2024-01-10T01:14:21;99621.00;;;-9.20;80.15
77799;BME280;66989;50.426;15.352;2024-01-10T01:16:46;99629.53;;;-9.19;80.62
77799;BME280;66989;50.426;15.352;2024-01-10T01:19:12;99630.38;;;-9.20;80.67
77799;BME280;66989;50.426;15.352;2024-01-10T01:21:37;99621.84;;;-9.21;80.07
77799;BME280;66989;50.426;15.352;2024-01-10T01:24:03;99625.31;;;-9.17;79.89
77799;BME280;66989;50.426;15.352;2024-01-10T01:26:28;99627.13;;;-9.13;79.50
77799;BME280;66989;50.426;15.352;2024-01-10T01:28:54;99633.94;;;-9.12;78.36
77799;BME280;66989;50.426;15.352;2024-01-10T01:31:19;99630.53;;;-9.13;79.39
77799;BME280;66989;50.426;15.352;2024-01-10T01:33:45;99639.81;;;-9.16;79.41
77799;BME280;66989;50.426;15.352;2024-01-10T01:36:10;99629.41;;;-9.24;80.06
77799;BME280;66989;50.426;15.352;2024-01-10T01:38:36;99625.91;;;-9.27;81.35
77799;BME280;66989;50.426;15.352;2024-01-10T01:41:01;99627.47;;;-9.33;80.74
77799;BME280;66989;50.426;15.352;2024-01-10T01:43:28;99623.94;;;-9.38;81.46
77799;BME280;66989;50.426;15.352;2024-01-10T01:45:55;99625.53;;;-9.43;81.81
77799;BME280;66989;50.426;15.352;2024-01-10T01:48:22;99618.56;;;-9.48;81.59
77799;BME280;66989;50.426;15.352;2024-01-10T01:50:51;99614.28;;;-9.51;82.62
77799;BME280;66989;50.426;15.352;2024-01-10T01:53:17;99615.88;;;-9.55;83.06
77799;BME280;66989;50.426;15.352;2024-01-10T01:55:46;99617.53;;;-9.57;83.26
77799;BME280;66989;50.426;15.352;2024-01-10T01:58:12;99616.56;;;-9.60;82.81
77799;BME280;66989;50.426;15.352;2024-01-10T02:00:40;99619.97;;;-9.61;83.63
77799;BME280;66989;50.426;15.352;2024-01-10T02:03:07;99613.19;;;-9.59;83.55
77799;BME280;66989;50.426;15.352;2024-01-10T02:05:33;99614.91;;;-9.58;83.04
77799;BME280;66989;50.426;15.352;2024-01-10T02:07:59;99614.13;;;-9.57;82.33
77799;BME280;66989;50.426;15.352;2024-01-10T02:10:24;99609.91;;;-9.55;82.96
77799;BME280;66989;50.426;15.352;2024-01-10T02:12:50;99607.25;;;-9.58;82.71
77799;BME280;66989;50.426;15.352;2024-01-10T02:15:15;99597.00;;;-9.61;82.96
77799;BME280;66989;50.426;15.352;2024-01-10T02:17:42;99603.66;;;-9.66;83.37
77799;BME280;66989;50.426;15.352;2024-01-10T02:20:13;99602.72;;;-9.68;83.80
77799;BME280;66989;50.426;15.352;2024-01-10T02:22:39;99604.41;;;-9.70;84.03
77799;BME280;66989;50.426;15.352;2024-01-10T02:25:13;99600.94;;;-9.72;84.26
77799;BME280;66989;50.426;15.352;2024-01-10T02:27:40;99600.03;;;-9.74;84.47
77799;BME280;66989;50.426;15.352;2024-01-10T02:30:07;99600.84;;;-9.75;84.79
77799;BME280;66989;50.426;15.352;2024-01-10T02:32:33;99598.31;;;-9.75;84.31
77799;BME280;66989;50.426;15.352;2024-01-10T02:34:59;99600.94;;;-9.72;84.72
77799;BME280;66989;50.426;15.352;2024-01-10T02:37:24;99595.78;;;-9.74;83.96
77799;BME280;66989;50.426;15.352;2024-01-10T02:39:50;99596.63;;;-9.75;84.24
77799;BME280;66989;50.426;15.352;2024-01-10T02:42:16;99596.63;;;-9.75;84.29
77799;BME280;66989;50.426;15.352;2024-01-10T02:44:42;99600.84;;;-9.75;83.99
77799;BME280;66989;50.426;15.352;2024-01-10T02:47:07;99594.88;;;-9.77;83.71
77799;BME280;66989;50.426;15.352;2024-01-10T02:49:33;99594.88;;;-9.77;83.96
77799;BME280;66989;50.426;15.352;2024-01-10T02:51:59;99591.38;;;-9.79;84.08
77799;BME280;66989;50.426;15.352;2024-01-10T02:54:24;99593.09;;;-9.82;83.79
77799;BME280;66989;50.426;15.352;2024-01-10T02:56:50;99587.06;;;-9.84;83.79
77799;BME280;66989;50.426;15.352;2024-01-10T02:59:15;99590.44;;;-9.85;83.83
77799;BME280;66989;50.426;15.352;2024-01-10T03:01:41;99600.69;;;-9.83;82.82
77799;BME280;66989;50.426;15.352;2024-01-10T03:04:06;99597.22;;;-9.85;82.79
77799;BME280;66989;50.426;15.352;2024-01-10T03:06:32;99599.75;;;-9.87;83.23
77799;BME280;66989;50.426;15.352;2024-01-10T03:08:57;99600.56;;;-9.88;82.69
77799;BME280;66989;50.426;15.352;2024-01-10T03:11:22;99594.66;;;-9.87;83.61
77799;BME280;66989;50.426;15.352;2024-01-10T03:13:51;99599.63;;;-9.91;83.71
77799;BME280;66989;50.426;15.352;2024-01-10T03:16:17;99599.53;;;-9.94;84.83
77799;BME280;66989;50.426;15.352;2024-01-10T03:18:42;99599.50;;;-9.96;85.28
77799;BME280;66989;50.426;15.352;2024-01-10T03:21:08;99596.03;;;-9.98;84.99
77799;BME280;66989;50.426;15.352;2024-01-10T03:23:33;99596.88;;;-9.99;84.05
77799;BME280;66989;50.426;15.352;2024-01-10T03:25:58;99595.06;;;-10.03;83.83
77799;BME280;66989;50.426;15.352;2024-01-10T03:28:24;99588.22;;;-10.04;83.87
77799;BME280;66989;50.426;15.352;2024-01-10T03:30:49;99590.66;;;-10.09;83.57
77799;BME280;66989;50.426;15.352;2024-01-10T03:33:15;99589.81;;;-10.07;84.18
77799;BME280;66989;50.426;15.352;2024-01-10T03:35:41;99593.22;;;-10.09;84.30
77799;BME280;66989;50.426;15.352;2024-01-10T03:38:07;99593.22;;;-10.09;83.41
77799;BME280;66989;50.426;15.352;2024-01-10T03:40:32;99594.91;;;-10.09;83.51
77799;BME280;66989;50.426;15.352;2024-01-10T03:42:58;99588.16;;;-10.05;83.73
77799;BME280;66989;50.426;15.352;2024-01-10T03:45:23;99588.28;;;-10.02;83.40
77799;BME280;66989;50.426;15.352;2024-01-10T03:47:49;99596.81;;;-10.00;83.36
77799;BME280;66989;50.426;15.352;2024-01-10T03:50:20;99597.75;;;-9.98;84.57
77799;BME280;66989;50.426;15.352;2024-01-10T03:52:46;99591.78;;;-9.99;83.70
77799;BME280;66989;50.426;15.352;2024-01-10T03:55:12;99587.53;;;-9.98;83.60
77799;BME280;66989;50.426;15.352;2024-01-10T03:57:41;99576.50;;;-9.97;84.13
77799;BME280;66989;50.426;15.352;2024-01-10T04:00:08;99578.19;;;-9.98;84.62
77799;BME280;66989;50.426;15.352;2024-01-10T04:02:36;99584.13;;;-9.99;84.75
77799;BME280;66989;50.426;15.352;2024-01-10T04:05:01;99569.69;;;-9.98;84.71
77799;BME280;66989;50.426;15.352;2024-01-10T04:07:27;99572.28;;;-9.95;84.85
77799;BME280;66989;50.426;15.352;2024-01-10T04:09:53;99579.09;;;-9.96;84.19
77799;BME280;66989;50.426;15.352;2024-01-10T04:12:18;99576.47;;;-9.99;83.39
77799;BME280;66989;50.426;15.352;2024-01-10T04:14:44;99578.06;;;-10.02;83.79
77799;BME280;66989;50.426;15.352;2024-01-10T04:17:09;99574.56;;;-10.06;83.87
77799;BME280;66989;50.426;15.352;2024-01-10T04:19:34;99572.75;;;-10.10;83.78
77799;BME280;66989;50.426;15.352;2024-01-10T04:22:00;99580.47;;;-10.09;84.34
77799;BME280;66989;50.426;15.352;2024-01-10T04:24:25;99577.03;;;-10.09;83.63
77799;BME280;66989;50.426;15.352;2024-01-10T04:26:51;99571.00;;;-10.11;84.41
77799;BME280;66989;50.426;15.352;2024-01-10T04:29:16;99570.97;;;-10.13;84.54
77799;BME280;66989;50.426;15.352;2024-01-10T04:31:42;99568.47;;;-10.11;84.97
77799;BME280;66989;50.426;15.352;2024-01-10T04:34:07;99571.00;;;-10.11;84.38
77799;BME280;66989;50.426;15.352;2024-01-10T04:36:32;99577.91;;;-10.09;84.64
77799;BME280;66989;50.426;15.352;2024-01-10T04:38:58;99573.69;;;-10.06;84.52
77799;BME280;66989;50.426;15.352;2024-01-10T04:41:23;99570.31;;;-10.05;83.72
77799;BME280;66989;50.426;15.352;2024-01-10T04:43:49;99573.81;;;-10.02;83.25
77799;BME280;66989;50.426;15.352;2024-01-10T04:46:14;99569.59;;;-10.01;83.68
77799;BME280;66989;50.426;15.352;2024-01-10T04:48:39;99568.81;;;-9.99;83.53
77799;BME280;66989;50.426;15.352;2024-01-10T04:51:05;99563.59;;;-10.03;83.06
77799;BME280;66989;50.426;15.352;2024-01-10T04:53:30;99569.47;;;-10.06;83.80
77799;BME280;66989;50.426;15.352;2024-01-10T04:55:55;99564.22;;;-10.11;83.71
77799;BME280;66989;50.426;15.352;2024-01-10T04:58:21;99571.88;;;-10.11;83.72
77799;BME280;66989;50.426;15.352;2024-01-10T05:00:46;99565.88;;;-10.13;83.70
77799;BME280;66989;50.426;15.352;2024-01-10T05:03:12;99574.38;;;-10.14;83.90
77799;BME280;66989;50.426;15.352;2024-01-10T05:05:37;99568.41;;;-10.14;83.56
77799;BME280;66989;50.426;15.352;2024-01-10T05:08:03;99563.31;;;-10.14;83.87
77799;BME280;66989;50.426;15.352;2024-01-10T05:10:29;99567.56;;;-10.13;83.61
77799;BME280;66989;50.426;15.352;2024-01-10T05:12:54;99567.50;;;-10.15;83.99
77799;BME280;66989;50.426;15.352;2024-01-10T05:15:19;99567.56;;;-10.13;84.31
77799;BME280;66989;50.426;15.352;2024-01-10T05:17:45;99570.25;;;-10.09;84.61
77799;BME280;66989;50.426;15.352;2024-01-10T05:20:10;99560.09;;;-10.07;84.46
77799;BME280;66989;50.426;15.352;2024-01-10T05:22:35;99572.84;;;-10.07;83.66
77799;BME280;66989;50.426;15.352;2024-01-10T05:25:01;99566.88;;;-10.07;83.58
77799;BME280;66989;50.426;15.352;2024-01-10T05:27:27;99565.28;;;-10.04;83.12
77799;BME280;66989;50.426;15.352;2024-01-10T05:29:52;99566.16;;;-10.03;82.61
77799;BME280;66989;50.426;15.352;2024-01-10T05:32:17;99561.91;;;-10.03;82.46
77799;BME280;66989;50.426;15.352;2024-01-10T05:34:44;99563.59;;;-10.03;81.71
77799;BME280;66989;50.426;15.352;2024-01-10T05:37:09;99557.69;;;-10.01;81.60
77799;BME280;66989;50.426;15.352;2024-01-10T05:39:35;99560.28;;;-9.99;81.62
77799;BME280;66989;50.426;15.352;2024-01-10T05:42:00;99560.41;;;-9.95;80.74
77799;BME280;66989;50.426;15.352;2024-01-10T05:44:27;99549.47;;;-9.91;80.87
77799;BME280;66989;50.426;15.352;2024-01-10T05:46:53;99550.44;;;-9.86;79.92
77799;BME280;66989;50.426;15.352;2024-01-10T05:49:19;99546.28;;;-9.81;79.13
77799;BME280;66989;50.426;15.352;2024-01-10T05:51:44;99554.06;;;-9.76;79.30
77799;BME280;66989;50.426;15.352;2024-01-10T05:54:10;99555.94;;;-9.69;80.03
77799;BME280;66989;50.426;15.352;2024-01-10T05:56:35;99561.22;;;-9.63;79.18
77799;BME280;66989;50.426;15.352;2024-01-10T05:59:01;99557.00;;;-9.61;79.36
77799;BME280;66989;50.426;15.352;2024-01-10T06:01:26;99563.88;;;-9.58;79.04
77799;BME280;66989;50.426;15.352;2024-01-10T06:03:52;99555.47;;;-9.54;78.53
77799;BME280;66989;50.426;15.352;2024-01-10T06:06:17;99569.22;;;-9.49;78.23
77799;BME280;66989;50.426;15.352;2024-01-10T06:08:42;99563.34;;;-9.46;78.72
77799;BME280;66989;50.426;15.352;2024-01-10T06:11:08;99560.91;;;-9.42;78.03
77799;BME280;66989;50.426;15.352;2024-01-10T06:13:35;99562.69;;;-9.38;78.71
77799;BME280;66989;50.426;15.352;2024-01-10T06:16:02;99555.09;;;-9.35;77.76
77799;BME280;66989;50.426;15.352;2024-01-10T06:18:28;99555.19;;;-9.32;77.20
77799;BME280;66989;50.426;15.352;2024-01-10T06:20:53;99556.94;;;-9.29;77.31
77799;BME280;66989;50.426;15.352;2024-01-10T06:23:19;99552.72;;;-9.27;77.35
77799;BME280;66989;50.426;15.352;2024-01-10T06:25:44;99558.72;;;-9.26;78.06
77799;BME280;66989;50.426;15.352;2024-01-10T06:28:09;99563.81;;;-9.26;77.11
77799;BME280;66989;50.426;15.352;2024-01-10T06:30:35;99564.72;;;-9.24;77.97
77799;BME280;66989;50.426;15.352;2024-01-10T06:33:00;99557.09;;;-9.23;77.33
77799;BME280;66989;50.426;15.352;2024-01-10T06:35:26;99563.13;;;-9.19;77.03
77799;BME280;66989;50.426;15.352;2024-01-10T06:37:51;99558.91;;;-9.17;76.35
77799;BME280;66989;50.426;15.352;2024-01-10T06:40:16;99561.69;;;-9.08;76.59
77799;BME280;66989;50.426;15.352;2024-01-10T06:42:42;99551.59;;;-9.04;76.56
77799;BME280;66989;50.426;15.352;2024-01-10T06:45:08;99555.13;;;-8.97;76.84
77799;BME280;66989;50.426;15.352;2024-01-10T06:47:34;99556.94;;;-8.93;76.66
77799;BME280;66989;50.426;15.352;2024-01-10T06:49:59;99551.09;;;-8.87;76.43
77799;BME280;66989;50.426;15.352;2024-01-10T06:52:24;99554.59;;;-8.84;76.13
77799;BME280;66989;50.426;15.352;2024-01-10T06:54:50;99555.59;;;-8.77;75.67
77799;BME280;66989;50.426;15.352;2024-01-10T06:57:15;99558.25;;;-8.71;75.99
77799;BME280;66989;50.426;15.352;2024-01-10T06:59:41;99548.97;;;-8.69;75.91
77799;BME280;66989;50.426;15.352;2024-01-10T07:02:06;99556.75;;;-8.63;75.72
77799;BME280;66989;50.426;15.352;2024-01-10T07:04:31;99549.19;;;-8.58;76.11
77799;BME280;66989;50.426;15.352;2024-01-10T07:06:58;99556.13;;;-8.51;75.16
77799;BME280;66989;50.426;15.352;2024-01-10T07:09:25;99552.78;;;-8.48;75.19
77799;BME280;66989;50.426;15.352;2024-01-10T07:11:51;99563.03;;;-8.47;75.28
77799;BME280;66989;50.426;15.352;2024-01-10T07:14:16;99559.66;;;-8.46;75.94
77799;BME280;66989;50.426;15.352;2024-01-10T07:16:42;99562.19;;;-8.47;75.90
77799;BME280;66989;50.426;15.352;2024-01-10T07:19:11;99561.25;;;-8.51;76.84
77799;BME280;66989;50.426;15.352;2024-01-10T07:21:40;99572.28;;;-8.54;77.36
77799;BME280;66989;50.426;15.352;2024-01-10T07:24:06;99561.19;;;-8.54;77.05
77799;BME280;66989;50.426;15.352;2024-01-10T07:26:34;99563.81;;;-8.50;76.89
77799;BME280;66989;50.426;15.352;2024-01-10T07:28:59;99562.31;;;-8.41;76.61
77799;BME280;66989;50.426;15.352;2024-01-10T07:31:28;99561.56;;;-8.36;75.57
77799;BME280;66989;50.426;15.352;2024-01-10T07:33:55;99567.72;;;-8.28;75.59
77799;BME280;66989;50.426;15.352;2024-01-10T07:36:20;99566.97;;;-8.20;75.27
77799;BME280;66989;50.426;15.352;2024-01-10T07:38:45;99562.03;;;-8.11;74.11
77799;BME280;66989;50.426;15.352;2024-01-10T07:41:11;99564.72;;;-8.04;74.26
77799;BME280;66989;50.426;15.352;2024-01-10T07:43:37;99564.91;;;-7.94;74.26
77799;BME280;66989;50.426;15.352;2024-01-10T07:46:02;99564.25;;;-7.84;74.40
77799;BME280;66989;50.426;15.352;2024-01-10T07:48:27;99567.09;;;-7.69;74.62
77799;BME280;66989;50.426;15.352;2024-01-10T07:50:53;99561.47;;;-7.48;74.48
77799;BME280;66989;50.426;15.352;2024-01-10T07:53:18;99554.31;;;-7.16;73.87
77799;BME280;66989;50.426;15.352;2024-01-10T07:55:43;99557.59;;;-6.69;73.38
77799;BME280;66989;50.426;15.352;2024-01-10T07:58:09;99561.75;;;-6.08;71.57
77799;BME280;66989;50.426;15.352;2024-01-10T08:00:34;99547.00;;;-5.44;69.81
77799;BME280;66989;50.426;15.352;2024-01-10T08:03:00;99559.63;;;-4.64;67.60
77799;BME280;66989;50.426;15.352;2024-01-10T08:05:26;99554.81;;;-3.93;64.57
77799;BME280;66989;50.426;15.352;2024-01-10T08:07:51;99558.34;;;-3.27;61.87
77799;BME280;66989;50.426;15.352;2024-01-10T08:10:17;99557.41;;;-2.62;60.50
77799;BME280;66989;50.426;15.352;2024-01-10T08:12:42;99550.31;;;-1.94;58.33
77799;BME280;66989;50.426;15.352;2024-01-10T08:15:08;99549.03;;;-1.24;56.44
77799;BME280;66989;50.426;15.352;2024-01-10T08:17:33;99543.31;;;-0.63;56.04
77799;BME280;66989;50.426;15.352;2024-01-10T08:19:59;99538.44;;;-0.11;54.41
77799;BME280;66989;50.426;15.352;2024-01-10T08:22:29;99539.25;;;0.56;52.91
77799;BME280;66989;50.426;15.352;2024-01-10T08:24:54;99537.59;;;1.06;51.48
77799;BME280;66989;50.426;15.352;2024-01-10T08:27:21;99539.34;;;1.55;50.93
77799;BME280;66989;50.426;15.352;2024-01-10T08:29:47;99538.25;;;2.09;49.48
77799;BME280;66989;50.426;15.352;2024-01-10T08:32:12;99533.56;;;2.65;48.64
77799;BME280;66989;50.426;15.352;2024-01-10T08:34:37;99534.06;;;3.16;46.95
77799;BME280;66989;50.426;15.352;2024-01-10T08:37:03;99533.84;;;3.58;46.16
77799;BME280;66989;50.426;15.352;2024-01-10T08:39:29;99527.63;;;4.24;45.16
77799;BME280;66989;50.426;15.352;2024-01-10T08:41:56;99529.56;;;4.46;44.23
77799;BME280;66989;50.426;15.352;2024-01-10T08:44:21;99537.19;;;5.08;43.46
77799;BME280;66989;50.426;15.352;2024-01-10T08:46:47;99528.59;;;5.56;43.00
77799;BME280;66989;50.426;15.352;2024-01-10T08:49:13;99522.63;;;6.01;42.62
77799;BME280;66989;50.426;15.352;2024-01-10T08:51:38;99522.97;;;6.60;41.03
77799;BME280;66989;50.426;15.352;2024-01-10T08:54:06;99523.59;;;6.67;40.65
77799;BME280;66989;50.426;15.352;2024-01-10T08:56:31;99524.47;;;7.10;40.66
77799;BME280;66989;50.426;15.352;2024-01-10T08:58:57;99526.09;;;7.55;39.65
77799;BME280;66989;50.426;15.352;2024-01-10T09:01:22;99521.56;;;8.18;38.49
77799;BME280;66989;50.426;15.352;2024-01-10T09:03:48;99527.03;;;8.70;37.08
77799;BME280;66989;50.426;15.352;2024-01-10T09:06:14;99530.91;;;9.16;36.13
77799;BME280;66989;50.426;15.352;2024-01-10T09:08:40;99536.00;;;9.54;35.14
77799;BME280;66989;50.426;15.352;2024-01-10T09:11:05;99527.88;;;9.76;34.61
77799;BME280;66989;50.426;15.352;2024-01-10T09:13:31;99528.38;;;10.00;34.74
77799;BME280;66989;50.426;15.352;2024-01-10T09:15:56;99536.63;;;9.59;30.98
77799;BME280;66989;50.426;15.352;2024-01-10T09:18:22;99539.31;;;8.88;30.04
77799;BME280;66989;50.426;15.352;2024-01-10T09:20:47;99537.97;;;8.61;29.52
77799;BME280;66989;50.426;15.352;2024-01-10T09:23:15;99546.53;;;7.87;29.23
77799;BME280;66989;50.426;15.352;2024-01-10T09:25:41;99541.94;;;8.50;29.54
77799;BME280;66989;50.426;15.352;2024-01-10T09:28:06;99549.06;;;8.48;28.37
77799;BME280;66989;50.426;15.352;2024-01-10T09:30:32;99547.09;;;7.95;28.91
77799;BME280;66989;50.426;15.352;2024-01-10T09:32:58;99540.06;;;8.15;28.70
77799;BME280;66989;50.426;15.352;2024-01-10T09:35:24;99536.09;;;9.52;28.02
77799;BME280;66989;50.426;15.352;2024-01-10T09:37:51;99545.25;;;9.63;27.40
77799;BME280;66989;50.426;15.352;2024-01-10T09:40:16;99541.81;;;8.53;26.58
77799;BME280;66989;50.426;15.352;2024-01-10T09:42:44;99544.91;;;8.81;26.41
77799;BME280;66989;50.426;15.352;2024-01-10T09:45:09;99542.47;;;8.95;27.24
77799;BME280;66989;50.426;15.352;2024-01-10T09:47:36;99533.16;;;9.41;26.75
77799;BME280;66989;50.426;15.352;2024-01-10T09:50:02;99533.00;;;9.62;27.17
77799;BME280;66989;50.426;15.352;2024-01-10T09:52:29;99537.97;;;9.50;27.10
77799;BME280;66989;50.426;15.352;2024-01-10T09:54:59;99523.72;;;10.21;27.39
77799;BME280;66989;50.426;15.352;2024-01-10T09:57:26;99515.88;;;11.60;25.53
77799;BME280;66989;50.426;15.352;2024-01-10T09:59:52;99523.50;;;11.04;24.88
77799;BME280;66989;50.426;15.352;2024-01-10T10:02:19;99516.13;;;11.11;24.87
77799;BME280;66989;50.426;15.352;2024-01-10T10:05:08;99521.50;;;10.62;25.61
77799;BME280;66989;50.426;15.352;2024-01-10T10:07:44;99513.44;;;11.27;25.29
77799;BME280;66989;50.426;15.352;2024-01-10T10:10:10;99510.81;;;11.85;24.65
77799;BME280;66989;50.426;15.352;2024-01-10T10:12:43;99510.22;;;10.60;25.38
77799;BME280;66989;50.426;15.352;2024-01-10T10:15:14;99507.78;;;11.03;25.50
77799;BME280;66989;50.426;15.352;2024-01-10T10:17:40;99507.50;;;11.96;24.20
77799;BME280;66989;50.426;15.352;2024-01-10T10:20:13;99511.84;;;11.97;24.30
77799;BME280;66989;50.426;15.352;2024-01-10T10:22:39;99499.97;;;12.18;24.21
77799;BME280;66989;50.426;15.352;2024-01-10T10:25:04;99497.69;;;12.41;24.27
77799;BME280;66989;50.426;15.352;2024-01-10T10:27:30;99499.25;;;12.58;23.52
77799;BME280;66989;50.426;15.352;2024-01-10T10:29:56;99490.25;;;13.54;23.37
77799;BME280;66989;50.426;15.352;2024-01-10T10:32:21;99506.75;;;13.05;22.49
77799;BME280;66989;50.426;15.352;2024-01-10T10:34:47;99500.50;;;14.48;21.43
77799;BME280;66989;50.426;15.352;2024-01-10T10:37:12;99484.44;;;13.74;22.08
77799;BME280;66989;50.426;15.352;2024-01-10T10:39:39;99491.47;;;14.01;22.15
77799;BME280;66989;50.426;15.352;2024-01-10T10:42:05;99499.91;;;13.15;22.19
77799;BME280;66989;50.426;15.352;2024-01-10T10:44:33;99490.09;;;13.17;22.17
77799;BME280;66989;50.426;15.352;2024-01-10T10:47:04;99489.63;;;13.76;21.95
77799;BME280;66989;50.426;15.352;2024-01-10T10:49:32;99494.47;;;13.44;22.39
77799;BME280;66989;50.426;15.352;2024-01-10T10:51:59;99487.81;;;13.77;22.15
77799;BME280;66989;50.426;15.352;2024-01-10T10:54:28;99498.03;;;13.30;22.51
77799;BME280;66989;50.426;15.352;2024-01-10T10:56:57;99499.19;;;13.26;22.31
77799;BME280;66989;50.426;15.352;2024-01-10T10:59:26;99490.34;;;13.00;22.82
77799;BME280;66989;50.426;15.352;2024-01-10T11:01:51;99492.16;;;12.58;22.75
77799;BME280;66989;50.426;15.352;2024-01-10T11:04:19;99486.66;;;12.34;23.24
77799;BME280;66989;50.426;15.352;2024-01-10T11:06:46;99485.25;;;12.29;23.31
77799;BME280;66989;50.426;15.352;2024-01-10T11:09:13;99488.97;;;12.53;23.10
77799;BME280;66989;50.426;15.352;2024-01-10T11:14:28;99488.06;;;12.40;23.52
77799;BME280;66989;50.426;15.352;2024-01-10T11:23:17;99484.84;;;13.03;22.89
77799;BME280;66989;50.426;15.352;2024-01-10T11:25:48;99478.13;;;13.25;23.12
77799;BME280;66989;50.426;15.352;2024-01-10T11:28:13;99470.75;;;13.68;22.42
77799;BME280;66989;50.426;15.352;2024-01-10T11:30:50;99479.00;;;13.38;23.10
77799;BME280;66989;50.426;15.352;2024-01-10T11:36:13;99472.81;;;14.52;22.16
77799;BME280;66989;50.426;15.352;2024-01-10T11:41:30;99461.41;;;15.46;21.35
77799;BME280;66989;50.426;15.352;2024-01-10T11:46:53;99458.44;;;15.84;21.61
77799;BME280;66989;50.426;15.352;2024-01-10T11:49:21;99452.97;;;16.30;21.10
77799;BME280;66989;50.426;15.352;2024-01-10T11:51:56;99448.91;;;17.55;19.97
77799;BME280;66989;50.426;15.352;2024-01-10T11:57:07;99450.81;;;17.85;19.11
77799;BME280;66989;50.426;15.352;2024-01-10T11:59:34;99441.03;;;18.85;19.03
77799;BME280;66989;50.426;15.352;2024-01-10T12:02:00;99436.75;;;19.60;18.39
77799;BME280;66989;50.426;15.352;2024-01-10T12:04:25;99439.50;;;20.80;17.38
77799;BME280;66989;50.426;15.352;2024-01-10T12:06:55;99433.84;;;21.63;16.61
77799;BME280;66989;50.426;15.352;2024-01-10T12:09:21;99438.38;;;21.18;16.91
77799;BME280;66989;50.426;15.352;2024-01-10T12:11:46;99435.41;;;20.76;16.71
77799;BME280;66989;50.426;15.352;2024-01-10T12:14:11;99433.31;;;20.97;17.08
77799;BME280;66989;50.426;15.352;2024-01-10T12:16:37;99427.59;;;22.48;15.83
77799;BME280;66989;50.426;15.352;2024-01-10T12:19:03;99431.94;;;23.24;15.79
77799;BME280;66989;50.426;15.352;2024-01-10T12:21:30;99426.53;;;23.65;15.34
77799;BME280;66989;50.426;15.352;2024-01-10T12:23:55;99426.75;;;22.14;16.79
77799;BME280;66989;50.426;15.352;2024-01-10T12:26:21;99428.75;;;21.77;16.78
77799;BME280;66989;50.426;15.352;2024-01-10T12:29:04;99423.34;;;21.95;16.84
77799;BME280;66989;50.426;15.352;2024-01-10T12:31:31;99420.38;;;22.15;16.58
77799;BME280;66989;50.426;15.352;2024-01-10T12:33:59;99421.09;;;22.17;16.74
77799;BME280;66989;50.426;15.352;2024-01-10T12:36:25;99415.63;;;22.43;16.74
77799;BME280;66989;50.426;15.352;2024-01-10T12:38:50;99419.03;;;20.34;17.68
77799;BME280;66989;50.426;15.352;2024-01-10T12:41:17;99417.25;;;21.41;17.25
77799;BME280;66989;50.426;15.352;2024-01-10T12:43:43;99416.00;;;22.14;16.91
77799;BME280;66989;50.426;15.352;2024-01-10T12:46:13;99409.38;;;21.48;17.38
77799;BME280;66989;50.426;15.352;2024-01-10T12:48:40;99408.25;;;21.50;17.30
77799;BME280;66989;50.426;15.352;2024-01-10T12:51:09;99404.03;;;21.48;17.31
77799;BME280;66989;50.426;15.352;2024-01-10T12:53:37;99410.31;;;20.49;17.86
77799;BME280;66989;50.426;15.352;2024-01-10T12:56:04;99404.34;;;20.10;18.73
77799;BME280;66989;50.426;15.352;2024-01-10T12:58:30;99401.09;;;20.34;17.99
77799;BME280;66989;50.426;15.352;2024-01-10T13:00:56;99395.44;;;20.19;17.30
77799;BME280;66989;50.426;15.352;2024-01-10T13:03:22;99393.66;;;19.73;18.38
77799;BME280;66989;50.426;15.352;2024-01-10T13:05:48;99397.97;;;19.27;18.68